sensor_id;sensor_type;location;lat;lon;timestamp;temperature;humidity
3644;DHT22;1838;50.742;7.158;2022-11-20T00:00:09;4.20;99.90
3644;DHT22;1838;50.742;7.158;2022-11-20T00:02:34;4.20;99.90
3644;DHT22;1838;50.742;7.158;2022-11-20T00:05:00;4.20;99.90
3644;DHT22;1838;50.742;7.158;2022-11-20T00:07:25;4.10;99.90
3644;DHT22;1838;50.742;7.158;2022-11-20T00:09:51;4.10;99.90
3644;DHT22;1838;50.742;7.158;2022-11-20T00:12:16;4.10;99.90
3644;DHT22;1838;50.742;7.158;2022-11-20T00:14:42;4.10;99.90
3644;DHT22;1838;50.742;7.158;2022-11-20T00:17:07;4.20;99.90
3644;DHT22;1838;50.742;7.158;2022-11-20T00:19:33;4.20;99.90
3644;DHT22;1838;50.742;7.158;2022-11-20T00:21:58;4.20;99.90
3644;DHT22;1838;50.742;7.158;2022-11-20T00:24:24;4.30;99.90
3644;DHT22;1838;50.742;7.158;2022-11-20T00:26:49;4.40;99.90
3644;DHT22;1838;50.742;7.158;2022-11-20T00:29:15;4.40;99.90
3644;DHT22;1838;50.742;7.158;2022-11-20T00:31:41;4.50;99.90
3644;DHT22;1838;50.742;7.158;2022-11-20T00:34:06;4.50;99.90
3644;DHT22;1838;50.742;7.158;2022-11-20T00:36:33;4.60;99.90
3644;DHT22;1838;50.742;7.158;2022-11-20T00:38:59;4.50;99.90
3644;DHT22;1838;50.742;7.158;2022-11-20T00:41:26;4.60;99.90
3644;DHT22;1838;50.742;7.158;2022-11-20T00:43:53;4.60;99.90
3644;DHT22;1838;50.742;7.158;2022-11-20T00:46:21;4.70;99.90
3644;DHT22;1838;50.742;7.158;2022-11-20T00:48:47;4.80;99.90
3644;DHT22;1838;50.742;7.158;2022-11-20T00:51:15;4.80;99.90
3644;DHT22;1838;50.742;7.158;2022-11-20T00:53:41;4.70;99.90
3644;DHT22;1838;50.742;7.158;2022-11-20T00:56:10;4.80;99.90
3644;DHT22;1838;50.742;7.158;2022-11-20T00:58:37;4.80;99.90
3644;DHT22;1838;50.742;7.158;2022-11-20T01:03:38;4.90;99.90
3644;DHT22;1838;50.742;7.158;2022-11-20T01:06:17;4.90;99.90
3644;DHT22;1838;50.742;7.158;2022-11-20T01:08:44;4.90;99.90
3644;DHT22;1838;50.742;7.158;2022-11-20T01:11:14;4.80;99.90
3644;DHT22;1838;50.742;7.158;2022-11-20T01:13:40;4.80;99.90
3644;DHT22;1838;50.742;7.158;2022-11-20T01:18:35;4.70;99.90
3644;DHT22;1838;50.742;7.158;2022-11-20T01:21:02;4.70;99.90
3644;DHT22;1838;50.742;7.158;2022-11-20T01:23:33;4.60;99.90
3644;DHT22;1838;50.742;7.158;2022-11-20T01:26:03;4.60;99.90
3644;DHT22;1838;50.742;7.158;2022-11-20T01:28:29;4.40;99.90
3644;DHT22;1838;50.742;7.158;2022-11-20T01:30:55;4.30;99.90
3644;DHT22;1838;50.742;7.158;2022-11-20T01:33:21;4.20;99.90
3644;DHT22;1838;50.742;7.158;2022-11-20T01:35:46;4.20;99.90
3644;DHT22;1838;50.742;7.158;2022-11-20T01:38:12;4.10;99.90
3644;DHT22;1838;50.742;7.158;2022-11-20T01:40:37;4.10;99.90
3644;DHT22;1838;50.742;7.158;2022-11-20T01:43:29;4.10;99.90
3644;DHT22;1838;50.742;7.158;2022-11-20T01:51:29;4.30;99.90
3644;DHT22;1838;50.742;7.158;2022-11-20T01:53:58;4.20;99.90
3644;DHT22;1838;50.742;7.158;2022-11-20T01:56:25;4.20;99.90
3644;DHT22;1838;50.742;7.158;2022-11-20T01:58:54;4.30;99.90
3644;DHT22;1838;50.742;7.158;2022-11-20T02:01:22;4.40;99.90
3644;DHT22;1838;50.742;7.158;2022-11-20T02:03:48;4.40;99.90
3644;DHT22;1838;50.742;7.158;2022-11-20T02:06:16;4.50;99.90
3644;DHT22;1838;50.742;7.158;2022-11-20T02:08:44;4.60;99.90
3644;DHT22;1838;50.742;7.158;2022-11-20T02:11:10;4.60;99.90
3644;DHT22;1838;50.742;7.158;2022-11-20T02:13:35;4.70;99.90
3644;DHT22;1838;50.742;7.158;2022-11-20T02:18:41;4.60;99.90
3644;DHT22;1838;50.742;7.158;2022-11-20T02:24:03;4.40;99.90
3644;DHT22;1838;50.742;7.158;2022-11-20T02:26:31;4.30;99.90
3644;DHT22;1838;50.742;7.158;2022-11-20T02:28:59;4.20;99.90
3644;DHT22;1838;50.742;7.158;2022-11-20T02:31:25;4.10;99.90
3644;DHT22;1838;50.742;7.158;2022-11-20T02:33:55;4.10;99.90
3644;DHT22;1838;50.742;7.158;2022-11-20T02:36:21;4.00;99.90
3644;DHT22;1838;50.742;7.158;2022-11-20T02:38:49;4.00;99.90
3644;DHT22;1838;50.742;7.158;2022-11-20T02:41:15;3.90;99.90
3644;DHT22;1838;50.742;7.158;2022-11-20T02:43:40;3.90;99.90
3644;DHT22;1838;50.742;7.158;2022-11-20T02:46:07;3.90;99.90
3644;DHT22;1838;50.742;7.158;2022-11-20T02:48:32;3.90;99.90
3644;DHT22;1838;50.742;7.158;2022-11-20T02:50:58;4.00;99.90
3644;DHT22;1838;50.742;7.158;2022-11-20T02:53:24;4.00;99.90
3644;DHT22;1838;50.742;7.158;2022-11-20T02:55:49;4.10;99.90
3644;DHT22;1838;50.742;7.158;2022-11-20T02:58:14;4.20;99.90
3644;DHT22;1838;50.742;7.158;2022-11-20T03:00:40;4.20;99.90
3644;DHT22;1838;50.742;7.158;2022-11-20T03:03:06;4.10;99.90
3644;DHT22;1838;50.742;7.158;2022-11-20T03:05:31;4.10;99.90
3644;DHT22;1838;50.742;7.158;2022-11-20T03:07:57;4.10;99.90
3644;DHT22;1838;50.742;7.158;2022-11-20T03:10:22;4.20;99.90
3644;DHT22;1838;50.742;7.158;2022-11-20T03:12:53;4.10;99.90
3644;DHT22;1838;50.742;7.158;2022-11-20T03:15:19;4.00;99.90
3644;DHT22;1838;50.742;7.158;2022-11-20T03:17:44;3.90;99.90
3644;DHT22;1838;50.742;7.158;2022-11-20T03:20:10;4.00;99.90
3644;DHT22;1838;50.742;7.158;2022-11-20T03:22:36;4.00;99.90
3644;DHT22;1838;50.742;7.158;2022-11-20T03:25:02;4.00;99.90
3644;DHT22;1838;50.742;7.158;2022-11-20T03:27:32;4.10;99.90
3644;DHT22;1838;50.742;7.158;2022-11-20T03:29:57;4.10;99.90
3644;DHT22;1838;50.742;7.158;2022-11-20T03:32:23;4.30;99.90
3644;DHT22;1838;50.742;7.158;2022-11-20T03:34:48;4.40;99.90
3644;DHT22;1838;50.742;7.158;2022-11-20T03:37:14;4.40;99.90
3644;DHT22;1838;50.742;7.158;2022-11-20T03:39:39;4.50;99.90
3644;DHT22;1838;50.742;7.158;2022-11-20T03:42:05;4.40;99.90
3644;DHT22;1838;50.742;7.158;2022-11-20T03:44:50;4.60;99.90
3644;DHT22;1838;50.742;7.158;2022-11-20T03:47:16;4.70;99.90
3644;DHT22;1838;50.742;7.158;2022-11-20T03:49:41;4.70;99.90
3644;DHT22;1838;50.742;7.158;2022-11-20T03:52:07;4.80;99.90
3644;DHT22;1838;50.742;7.158;2022-11-20T03:54:32;4.80;99.90
3644;DHT22;1838;50.742;7.158;2022-11-20T03:56:58;4.90;99.90
3644;DHT22;1838;50.742;7.158;2022-11-20T03:59:23;4.90;99.90
3644;DHT22;1838;50.742;7.158;2022-11-20T04:01:49;4.90;99.90
3644;DHT22;1838;50.742;7.158;2022-11-20T04:04:14;4.80;99.90
3644;DHT22;1838;50.742;7.158;2022-11-20T04:06:40;4.70;99.90
3644;DHT22;1838;50.742;7.158;2022-11-20T04:09:06;4.70;99.90
3644;DHT22;1838;50.742;7.158;2022-11-20T04:11:36;4.60;99.90
3644;DHT22;1838;50.742;7.158;2022-11-20T04:14:04;4.60;99.90
3644;DHT22;1838;50.742;7.158;2022-11-20T04:16:32;4.60;99.90
3644;DHT22;1838;50.742;7.158;2022-11-20T04:19:00;4.60;99.90
3644;DHT22;1838;50.742;7.158;2022-11-20T04:21:26;4.70;99.90
3644;DHT22;1838;50.742;7.158;2022-11-20T04:23:52;4.80;99.90
3644;DHT22;1838;50.742;7.158;2022-11-20T04:26:22;4.90;99.90
3644;DHT22;1838;50.742;7.158;2022-11-20T04:28:48;4.90;99.90
3644;DHT22;1838;50.742;7.158;2022-11-20T04:31:16;4.90;99.90
3644;DHT22;1838;50.742;7.158;2022-11-20T04:33:42;4.90;99.90
3644;DHT22;1838;50.742;7.158;2022-11-20T04:36:24;4.90;99.90
3644;DHT22;1838;50.742;7.158;2022-11-20T04:38:58;4.90;99.90
3644;DHT22;1838;50.742;7.158;2022-11-20T04:41:25;5.00;99.90
3644;DHT22;1838;50.742;7.158;2022-11-20T04:43:53;5.00;99.90
3644;DHT22;1838;50.742;7.158;2022-11-20T04:46:24;5.00;99.90
3644;DHT22;1838;50.742;7.158;2022-11-20T04:48:50;5.00;99.90
3644;DHT22;1838;50.742;7.158;2022-11-20T04:51:15;5.10;99.90
3644;DHT22;1838;50.742;7.158;2022-11-20T04:53:41;5.10;99.90
3644;DHT22;1838;50.742;7.158;2022-11-20T04:56:08;5.20;99.90
3644;DHT22;1838;50.742;7.158;2022-11-20T04:58:35;5.30;99.90
3644;DHT22;1838;50.742;7.158;2022-11-20T05:01:05;5.20;99.90
3644;DHT22;1838;50.742;7.158;2022-11-20T05:03:31;5.30;99.90
3644;DHT22;1838;50.742;7.158;2022-11-20T05:05:59;5.40;99.90
3644;DHT22;1838;50.742;7.158;2022-11-20T05:08:25;5.40;99.90
3644;DHT22;1838;50.742;7.158;2022-11-20T05:10:50;5.40;99.90
3644;DHT22;1838;50.742;7.158;2022-11-20T05:13:16;5.40;99.90
3644;DHT22;1838;50.742;7.158;2022-11-20T05:15:41;5.40;99.90
3644;DHT22;1838;50.742;7.158;2022-11-20T05:18:07;5.40;99.90
3644;DHT22;1838;50.742;7.158;2022-11-20T05:20:32;5.40;99.90
3644;DHT22;1838;50.742;7.158;2022-11-20T05:22:58;5.40;99.90
3644;DHT22;1838;50.742;7.158;2022-11-20T05:25:23;5.40;99.90
3644;DHT22;1838;50.742;7.158;2022-11-20T05:27:49;5.40;99.90
3644;DHT22;1838;50.742;7.158;2022-11-20T05:30:14;5.40;99.90
3644;DHT22;1838;50.742;7.158;2022-11-20T05:32:40;5.50;99.90
3644;DHT22;1838;50.742;7.158;2022-11-20T05:35:06;5.40;99.90
3644;DHT22;1838;50.742;7.158;2022-11-20T05:37:31;5.50;99.90
3644;DHT22;1838;50.742;7.158;2022-11-20T05:39:57;5.50;99.90
3644;DHT22;1838;50.742;7.158;2022-11-20T05:42:23;5.50;99.90
3644;DHT22;1838;50.742;7.158;2022-11-20T05:44:58;5.40;99.90
3644;DHT22;1838;50.742;7.158;2022-11-20T05:47:24;5.30;99.90
3644;DHT22;1838;50.742;7.158;2022-11-20T05:49:50;5.40;99.90
3644;DHT22;1838;50.742;7.158;2022-11-20T05:52:15;5.50;99.90
3644;DHT22;1838;50.742;7.158;2022-11-20T05:54:41;5.40;99.90
3644;DHT22;1838;50.742;7.158;2022-11-20T05:57:06;5.40;99.90
3644;DHT22;1838;50.742;7.158;2022-11-20T05:59:32;5.50;99.90
3644;DHT22;1838;50.742;7.158;2022-11-20T06:01:57;5.50;99.90
3644;DHT22;1838;50.742;7.158;2022-11-20T06:04:23;5.50;99.90
3644;DHT22;1838;50.742;7.158;2022-11-20T06:06:49;5.50;99.90
3644;DHT22;1838;50.742;7.158;2022-11-20T06:09:14;5.60;99.90
3644;DHT22;1838;50.742;7.158;2022-11-20T06:11:39;5.60;99.90
3644;DHT22;1838;50.742;7.158;2022-11-20T06:14:05;5.70;99.90
3644;DHT22;1838;50.742;7.158;2022-11-20T06:16:31;5.70;99.90
3644;DHT22;1838;50.742;7.158;2022-11-20T06:18:56;5.60;99.90
3644;DHT22;1838;50.742;7.158;2022-11-20T06:21:22;5.70;99.90
3644;DHT22;1838;50.742;7.158;2022-11-20T06:23:49;5.70;99.90
3644;DHT22;1838;50.742;7.158;2022-11-20T06:26:21;5.60;99.90
3644;DHT22;1838;50.742;7.158;2022-11-20T06:28:48;5.60;99.90
3644;DHT22;1838;50.742;7.158;2022-11-20T06:31:15;5.50;99.90
3644;DHT22;1838;50.742;7.158;2022-11-20T06:33:42;5.50;99.90
3644;DHT22;1838;50.742;7.158;2022-11-20T06:36:10;5.40;99.90
3644;DHT22;1838;50.742;7.158;2022-11-20T06:38:36;5.20;99.90
3644;DHT22;1838;50.742;7.158;2022-11-20T06:41:03;5.00;99.90
3644;DHT22;1838;50.742;7.158;2022-11-20T06:43:29;4.90;99.90
3644;DHT22;1838;50.742;7.158;2022-11-20T06:45:56;4.90;99.90
3644;DHT22;1838;50.742;7.158;2022-11-20T06:48:23;4.80;99.90
3644;DHT22;1838;50.742;7.158;2022-11-20T06:50:49;4.80;99.90
3644;DHT22;1838;50.742;7.158;2022-11-20T06:53:14;4.80;99.90
3644;DHT22;1838;50.742;7.158;2022-11-20T06:55:44;4.70;99.90
3644;DHT22;1838;50.742;7.158;2022-11-20T06:58:10;4.70;99.90
3644;DHT22;1838;50.742;7.158;2022-11-20T07:00:35;4.60;99.90
3644;DHT22;1838;50.742;7.158;2022-11-20T07:03:05;4.50;99.90
3644;DHT22;1838;50.742;7.158;2022-11-20T07:05:31;4.40;99.90
3644;DHT22;1838;50.742;7.158;2022-11-20T07:07:57;4.40;99.90
3644;DHT22;1838;50.742;7.158;2022-11-20T07:10:23;4.40;99.90
3644;DHT22;1838;50.742;7.158;2022-11-20T07:12:54;4.40;99.90
3644;DHT22;1838;50.742;7.158;2022-11-20T07:15:22;4.30;99.90
3644;DHT22;1838;50.742;7.158;2022-11-20T07:17:48;4.30;99.90
3644;DHT22;1838;50.742;7.158;2022-11-20T07:20:14;4.20;99.90
3644;DHT22;1838;50.742;7.158;2022-11-20T07:22:39;4.20;99.90
3644;DHT22;1838;50.742;7.158;2022-11-20T07:25:06;4.20;99.90
3644;DHT22;1838;50.742;7.158;2022-11-20T07:27:32;4.20;99.90
3644;DHT22;1838;50.742;7.158;2022-11-20T07:29:57;4.20;99.90
3644;DHT22;1838;50.742;7.158;2022-11-20T07:32:23;4.20;99.90
3644;DHT22;1838;50.742;7.158;2022-11-20T07:34:49;4.20;99.90
3644;DHT22;1838;50.742;7.158;2022-11-20T07:37:15;4.20;99.90
3644;DHT22;1838;50.742;7.158;2022-11-20T07:39:41;4.20;99.90
3644;DHT22;1838;50.742;7.158;2022-11-20T07:42:07;4.20;99.90
3644;DHT22;1838;50.742;7.158;2022-11-20T07:44:33;4.30;99.90
3644;DHT22;1838;50.742;7.158;2022-11-20T07:46:59;4.30;99.90
3644;DHT22;1838;50.742;7.158;2022-11-20T07:49:24;4.40;99.90
3644;DHT22;1838;50.742;7.158;2022-11-20T07:51:51;4.40;99.90
3644;DHT22;1838;50.742;7.158;2022-11-20T07:54:16;4.50;99.90
3644;DHT22;1838;50.742;7.158;2022-11-20T07:56:42;4.50;99.90
3644;DHT22;1838;50.742;7.158;2022-11-20T07:59:07;4.50;99.90
3644;DHT22;1838;50.742;7.158;2022-11-20T08:01:33;4.60;99.90
3644;DHT22;1838;50.742;7.158;2022-11-20T08:03:58;4.70;99.90
3644;DHT22;1838;50.742;7.158;2022-11-20T08:06:24;4.70;99.90
3644;DHT22;1838;50.742;7.158;2022-11-20T08:08:50;4.80;99.90
3644;DHT22;1838;50.742;7.158;2022-11-20T08:11:16;4.80;99.90
3644;DHT22;1838;50.742;7.158;2022-11-20T08:14:00;4.80;99.90
3644;DHT22;1838;50.742;7.158;2022-11-20T08:16:48;5.00;99.90
3644;DHT22;1838;50.742;7.158;2022-11-20T08:19:15;5.00;99.90
3644;DHT22;1838;50.742;7.158;2022-11-20T08:21:41;5.10;99.90
3644;DHT22;1838;50.742;7.158;2022-11-20T08:24:07;5.20;99.90
3644;DHT22;1838;50.742;7.158;2022-11-20T08:26:34;5.30;99.90
3644;DHT22;1838;50.742;7.158;2022-11-20T08:29:00;5.40;99.90
3644;DHT22;1838;50.742;7.158;2022-11-20T08:31:26;5.40;99.90
3644;DHT22;1838;50.742;7.158;2022-11-20T08:33:52;5.50;99.90
3644;DHT22;1838;50.742;7.158;2022-11-20T08:36:20;5.60;99.90
3644;DHT22;1838;50.742;7.158;2022-11-20T08:38:49;5.70;99.90
3644;DHT22;1838;50.742;7.158;2022-11-20T08:41:15;5.70;99.90
3644;DHT22;1838;50.742;7.158;2022-11-20T08:43:59;5.80;99.90
3644;DHT22;1838;50.742;7.158;2022-11-20T08:46:26;5.80;99.90
3644;DHT22;1838;50.742;7.158;2022-11-20T08:48:52;5.70;99.90
3644;DHT22;1838;50.742;7.158;2022-11-20T08:51:18;5.80;99.90
3644;DHT22;1838;50.742;7.158;2022-11-20T08:53:45;5.90;99.90
3644;DHT22;1838;50.742;7.158;2022-11-20T08:56:10;5.90;99.90
3644;DHT22;1838;50.742;7.158;2022-11-20T08:58:37;5.90;99.90
3644;DHT22;1838;50.742;7.158;2022-11-20T09:01:03;5.90;99.90
3644;DHT22;1838;50.742;7.158;2022-11-20T09:03:28;6.00;99.90
3644;DHT22;1838;50.742;7.158;2022-11-20T09:05:59;5.90;99.90
3644;DHT22;1838;50.742;7.158;2022-11-20T09:08:25;5.90;99.90
3644;DHT22;1838;50.742;7.158;2022-11-20T09:10:52;6.00;99.90
3644;DHT22;1838;50.742;7.158;2022-11-20T09:13:17;6.10;99.90
3644;DHT22;1838;50.742;7.158;2022-11-20T09:15:43;6.10;99.90
3644;DHT22;1838;50.742;7.158;2022-11-20T09:18:08;6.20;99.90
3644;DHT22;1838;50.742;7.158;2022-11-20T09:20:34;6.20;99.90
3644;DHT22;1838;50.742;7.158;2022-11-20T09:22:59;6.10;99.90
3644;DHT22;1838;50.742;7.158;2022-11-20T09:25:25;6.10;99.90
3644;DHT22;1838;50.742;7.158;2022-11-20T09:27:58;6.00;99.90
3644;DHT22;1838;50.742;7.158;2022-11-20T09:30:24;6.10;99.90
3644;DHT22;1838;50.742;7.158;2022-11-20T09:32:50;6.20;99.90
3644;DHT22;1838;50.742;7.158;2022-11-20T09:35:15;6.20;99.90
3644;DHT22;1838;50.742;7.158;2022-11-20T09:37:41;6.20;99.90
3644;DHT22;1838;50.742;7.158;2022-11-20T09:40:21;6.30;99.90
3644;DHT22;1838;50.742;7.158;2022-11-20T09:43:01;6.20;99.90
3644;DHT22;1838;50.742;7.158;2022-11-20T09:54:15;6.40;99.90
3644;DHT22;1838;50.742;7.158;2022-11-20T09:56:45;6.40;99.90
3644;DHT22;1838;50.742;7.158;2022-11-20T09:59:23;6.40;99.90
3644;DHT22;1838;50.742;7.158;2022-11-20T10:01:51;6.40;99.90
3644;DHT22;1838;50.742;7.158;2022-11-20T10:04:19;6.50;99.90
3644;DHT22;1838;50.742;7.158;2022-11-20T10:09:34;6.50;99.90
3644;DHT22;1838;50.742;7.158;2022-11-20T10:12:26;6.50;99.90
3644;DHT22;1838;50.742;7.158;2022-11-20T10:15:06;6.60;99.90
3644;DHT22;1838;50.742;7.158;2022-11-20T10:23:26;6.60;99.90
3644;DHT22;1838;50.742;7.158;2022-11-20T10:26:06;6.70;99.90
3644;DHT22;1838;50.742;7.158;2022-11-20T10:29:01;6.80;99.90
3644;DHT22;1838;50.742;7.158;2022-11-20T10:31:37;6.90;99.90
3644;DHT22;1838;50.742;7.158;2022-11-20T10:34:27;7.00;99.90
3644;DHT22;1838;50.742;7.158;2022-11-20T10:37:02;7.10;99.90
3644;DHT22;1838;50.742;7.158;2022-11-20T10:39:32;7.20;99.90
3644;DHT22;1838;50.742;7.158;2022-11-20T10:41:59;7.20;99.90
3644;DHT22;1838;50.742;7.158;2022-11-20T10:44:29;7.20;99.90
3644;DHT22;1838;50.742;7.158;2022-11-20T10:47:16;7.30;99.90
3644;DHT22;1838;50.742;7.158;2022-11-20T10:49:46;7.20;99.90
3644;DHT22;1838;50.742;7.158;2022-11-20T10:57:44;7.20;99.90
3644;DHT22;1838;50.742;7.158;2022-11-20T11:00:12;7.30;99.90
3644;DHT22;1838;50.742;7.158;2022-11-20T11:02:48;7.40;99.90
3644;DHT22;1838;50.742;7.158;2022-11-20T11:05:23;7.60;99.90
3644;DHT22;1838;50.742;7.158;2022-11-20T11:07:54;7.60;99.90
3644;DHT22;1838;50.742;7.158;2022-11-20T11:10:39;7.60;99.90
3644;DHT22;1838;50.742;7.158;2022-11-20T11:13:07;7.50;99.90
3644;DHT22;1838;50.742;7.158;2022-11-20T11:15:40;7.40;99.90
3644;DHT22;1838;50.742;7.158;2022-11-20T11:18:10;7.30;99.90
3644;DHT22;1838;50.742;7.158;2022-11-20T11:20:36;7.30;99.90
3644;DHT22;1838;50.742;7.158;2022-11-20T11:23:02;7.20;99.90
3644;DHT22;1838;50.742;7.158;2022-11-20T11:25:35;7.30;99.90
3644;DHT22;1838;50.742;7.158;2022-11-20T11:28:04;7.40;99.90
3644;DHT22;1838;50.742;7.158;2022-11-20T11:30:41;7.40;99.90
3644;DHT22;1838;50.742;7.158;2022-11-20T11:33:10;7.40;99.90
3644;DHT22;1838;50.742;7.158;2022-11-20T11:35:47;7.50;99.90
3644;DHT22;1838;50.742;7.158;2022-11-20T11:38:17;7.60;99.90
3644;DHT22;1838;50.742;7.158;2022-11-20T11:40:44;7.50;99.90
3644;DHT22;1838;50.742;7.158;2022-11-20T11:43:21;7.40;99.90
3644;DHT22;1838;50.742;7.158;2022-11-20T11:46:33;7.30;99.90
3644;DHT22;1838;50.742;7.158;2022-11-20T11:51:46;7.10;99.90
3644;DHT22;1838;50.742;7.158;2022-11-20T11:54:45;7.00;99.90
3644;DHT22;1838;50.742;7.158;2022-11-20T12:00:21;7.00;99.90
3644;DHT22;1838;50.742;7.158;2022-11-20T12:08:03;7.10;99.90
3644;DHT22;1838;50.742;7.158;2022-11-20T12:15:47;7.40;99.90
3644;DHT22;1838;50.742;7.158;2022-11-20T12:18:17;7.40;99.90
3644;DHT22;1838;50.742;7.158;2022-11-20T12:20:51;7.40;99.90
3644;DHT22;1838;50.742;7.158;2022-11-20T12:23:35;7.40;99.90
3644;DHT22;1838;50.742;7.158;2022-11-20T12:26:13;7.30;99.90
3644;DHT22;1838;50.742;7.158;2022-11-20T12:34:23;7.60;99.90
3644;DHT22;1838;50.742;7.158;2022-11-20T12:56:54;7.70;99.90
3644;DHT22;1838;50.742;7.158;2022-11-20T13:02:14;7.70;99.90
3644;DHT22;1838;50.742;7.158;2022-11-20T13:07:13;7.90;99.90
3644;DHT22;1838;50.742;7.158;2022-11-20T13:09:47;7.90;99.90
3644;DHT22;1838;50.742;7.158;2022-11-20T13:15:20;8.00;99.90
3644;DHT22;1838;50.742;7.158;2022-11-20T13:17:57;8.00;99.90
3644;DHT22;1838;50.742;7.158;2022-11-20T13:20:23;8.10;99.90
3644;DHT22;1838;50.742;7.158;2022-11-20T13:25:25;8.20;99.90
3644;DHT22;1838;50.742;7.158;2022-11-20T13:27:51;8.20;99.90
3644;DHT22;1838;50.742;7.158;2022-11-20T13:30:19;8.20;99.90
3644;DHT22;1838;50.742;7.158;2022-11-20T13:38:09;8.20;99.90
3644;DHT22;1838;50.742;7.158;2022-11-20T13:40:59;8.30;99.90
3644;DHT22;1838;50.742;7.158;2022-11-20T13:43:40;8.40;99.90
3644;DHT22;1838;50.742;7.158;2022-11-20T13:46:08;8.40;99.90
3644;DHT22;1838;50.742;7.158;2022-11-20T13:48:42;8.40;99.90
3644;DHT22;1838;50.742;7.158;2022-11-20T13:51:23;8.50;99.90
3644;DHT22;1838;50.742;7.158;2022-11-20T13:57:06;8.60;99.90
3644;DHT22;1838;50.742;7.158;2022-11-20T14:00:18;8.70;99.90
3644;DHT22;1838;50.742;7.158;2022-11-20T14:02:29;8.90;99.90
3644;DHT22;1838;50.742;7.158;2022-11-20T14:04:57;8.90;99.90
3644;DHT22;1838;50.742;7.158;2022-11-20T14:07:27;8.90;99.90
3644;DHT22;1838;50.742;7.158;2022-11-20T14:09:57;8.80;99.90
3644;DHT22;1838;50.742;7.158;2022-11-20T14:12:28;8.80;99.90
3644;DHT22;1838;50.742;7.158;2022-11-20T14:14:54;8.80;99.90
3644;DHT22;1838;50.742;7.158;2022-11-20T14:17:24;8.80;99.90
3644;DHT22;1838;50.742;7.158;2022-11-20T14:19:51;8.70;99.90
3644;DHT22;1838;50.742;7.158;2022-11-20T14:24:47;8.70;99.90
3644;DHT22;1838;50.742;7.158;2022-11-20T14:27:17;8.60;99.90
3644;DHT22;1838;50.742;7.158;2022-11-20T14:29:46;8.50;99.90
3644;DHT22;1838;50.742;7.158;2022-11-20T14:32:15;8.30;99.90
3644;DHT22;1838;50.742;7.158;2022-11-20T14:34:43;8.20;99.90
3644;DHT22;1838;50.742;7.158;2022-11-20T14:37:18;8.10;99.90
3644;DHT22;1838;50.742;7.158;2022-11-20T14:39:51;8.00;99.90
3644;DHT22;1838;50.742;7.158;2022-11-20T14:42:27;7.90;99.90
3644;DHT22;1838;50.742;7.158;2022-11-20T14:44:58;7.90;99.90
3644;DHT22;1838;50.742;7.158;2022-11-20T14:47:26;7.80;99.90
3644;DHT22;1838;50.742;7.158;2022-11-20T14:49:53;7.80;99.90
3644;DHT22;1838;50.742;7.158;2022-11-20T14:52:21;7.80;99.90
3644;DHT22;1838;50.742;7.158;2022-11-20T14:54:52;7.90;99.90
3644;DHT22;1838;50.742;7.158;2022-11-20T14:59:50;7.80;99.90
3644;DHT22;1838;50.742;7.158;2022-11-20T15:02:16;7.80;99.90
3644;DHT22;1838;50.742;7.158;2022-11-20T15:04:46;7.70;99.90
3644;DHT22;1838;50.742;7.158;2022-11-20T15:07:22;7.70;99.90
3644;DHT22;1838;50.742;7.158;2022-11-20T15:09:48;7.70;99.90
3644;DHT22;1838;50.742;7.158;2022-11-20T15:12:23;7.60;99.90
3644;DHT22;1838;50.742;7.158;2022-11-20T15:14:49;7.50;99.90
3644;DHT22;1838;50.742;7.158;2022-11-20T15:17:15;7.50;99.90
3644;DHT22;1838;50.742;7.158;2022-11-20T15:19:40;7.50;99.90
3644;DHT22;1838;50.742;7.158;2022-11-20T15:22:11;7.50;99.90
3644;DHT22;1838;50.742;7.158;2022-11-20T15:24:38;7.50;99.90
3644;DHT22;1838;50.742;7.158;2022-11-20T15:27:03;7.50;99.90
3644;DHT22;1838;50.742;7.158;2022-11-20T15:29:29;7.60;99.90
3644;DHT22;1838;50.742;7.158;2022-11-20T15:31:54;7.60;99.90
3644;DHT22;1838;50.742;7.158;2022-11-20T15:34:21;7.60;99.90
3644;DHT22;1838;50.742;7.158;2022-11-20T15:36:46;7.50;99.90
3644;DHT22;1838;50.742;7.158;2022-11-20T15:39:12;7.50;99.90
3644;DHT22;1838;50.742;7.158;2022-11-20T15:41:38;7.50;99.90
3644;DHT22;1838;50.742;7.158;2022-11-20T15:44:04;7.60;99.90
3644;DHT22;1838;50.742;7.158;2022-11-20T15:46:31;7.60;99.90
3644;DHT22;1838;50.742;7.158;2022-11-20T15:49:03;7.60;99.90
3644;DHT22;1838;50.742;7.158;2022-11-20T15:53:56;7.80;99.90
3644;DHT22;1838;50.742;7.158;2022-11-20T15:56:21;7.80;99.90
3644;DHT22;1838;50.742;7.158;2022-11-20T15:58:47;7.80;99.90
3644;DHT22;1838;50.742;7.158;2022-11-20T16:01:14;7.80;99.90
3644;DHT22;1838;50.742;7.158;2022-11-20T16:03:40;7.80;99.90
3644;DHT22;1838;50.742;7.158;2022-11-20T16:06:06;7.70;99.90
3644;DHT22;1838;50.742;7.158;2022-11-20T16:08:32;7.70;99.90
3644;DHT22;1838;50.742;7.158;2022-11-20T16:10:58;7.60;99.90
3644;DHT22;1838;50.742;7.158;2022-11-20T16:13:23;7.70;99.90
3644;DHT22;1838;50.742;7.158;2022-11-20T16:16:17;7.70;99.90
3644;DHT22;1838;50.742;7.158;2022-11-20T16:18:43;7.60;99.90
3644;DHT22;1838;50.742;7.158;2022-11-20T16:21:11;7.60;99.90
3644;DHT22;1838;50.742;7.158;2022-11-20T16:23:38;7.60;99.90
3644;DHT22;1838;50.742;7.158;2022-11-20T16:26:15;7.60;99.90
3644;DHT22;1838;50.742;7.158;2022-11-20T16:28:42;7.60;99.90
3644;DHT22;1838;50.742;7.158;2022-11-20T16:31:15;7.60;99.90
3644;DHT22;1838;50.742;7.158;2022-11-20T16:33:41;7.50;99.90
3644;DHT22;1838;50.742;7.158;2022-11-20T16:36:14;7.50;99.90
3644;DHT22;1838;50.742;7.158;2022-11-20T16:38:41;7.50;99.90
3644;DHT22;1838;50.742;7.158;2022-11-20T16:41:07;7.50;99.90
3644;DHT22;1838;50.742;7.158;2022-11-20T16:43:50;7.50;99.90
3644;DHT22;1838;50.742;7.158;2022-11-20T16:46:18;7.60;99.90
3644;DHT22;1838;50.742;7.158;2022-11-20T16:48:44;7.60;99.90
3644;DHT22;1838;50.742;7.158;2022-11-20T16:51:11;7.60;99.90
3644;DHT22;1838;50.742;7.158;2022-11-20T16:53:38;7.70;99.90
3644;DHT22;1838;50.742;7.158;2022-11-20T16:56:11;7.80;99.90
3644;DHT22;1838;50.742;7.158;2022-11-20T16:58:37;7.90;99.90
3644;DHT22;1838;50.742;7.158;2022-11-20T17:01:07;7.90;99.90
3644;DHT22;1838;50.742;7.158;2022-11-20T17:03:36;8.00;99.90
3644;DHT22;1838;50.742;7.158;2022-11-20T17:06:01;8.00;99.90
3644;DHT22;1838;50.742;7.158;2022-11-20T17:08:34;8.10;99.90
3644;DHT22;1838;50.742;7.158;2022-11-20T17:11:07;8.10;99.90
3644;DHT22;1838;50.742;7.158;2022-11-20T17:13:33;8.20;99.90
3644;DHT22;1838;50.742;7.158;2022-11-20T17:16:03;8.20;99.90
3644;DHT22;1838;50.742;7.158;2022-11-20T17:18:29;8.10;99.90
3644;DHT22;1838;50.742;7.158;2022-11-20T17:20:55;8.00;99.90
3644;DHT22;1838;50.742;7.158;2022-11-20T17:23:21;8.00;99.90
3644;DHT22;1838;50.742;7.158;2022-11-20T17:25:47;7.90;99.90
3644;DHT22;1838;50.742;7.158;2022-11-20T17:28:12;7.80;99.90
3644;DHT22;1838;50.742;7.158;2022-11-20T17:30:38;7.80;99.90
3644;DHT22;1838;50.742;7.158;2022-11-20T17:33:03;7.80;99.90
3644;DHT22;1838;50.742;7.158;2022-11-20T17:35:29;7.80;99.90
3644;DHT22;1838;50.742;7.158;2022-11-20T17:37:55;7.70;99.90
3644;DHT22;1838;50.742;7.158;2022-11-20T17:40:21;7.80;99.90
3644;DHT22;1838;50.742;7.158;2022-11-20T17:42:46;7.70;99.90
3644;DHT22;1838;50.742;7.158;2022-11-20T17:45:12;7.70;99.90
3644;DHT22;1838;50.742;7.158;2022-11-20T17:47:37;7.70;99.90
3644;DHT22;1838;50.742;7.158;2022-11-20T17:50:03;7.70;99.90
3644;DHT22;1838;50.742;7.158;2022-11-20T17:52:29;7.60;99.90
3644;DHT22;1838;50.742;7.158;2022-11-20T17:54:54;7.70;99.90
3644;DHT22;1838;50.742;7.158;2022-11-20T17:57:22;7.60;99.90
3644;DHT22;1838;50.742;7.158;2022-11-20T18:00:07;7.70;99.90
3644;DHT22;1838;50.742;7.158;2022-11-20T18:02:35;7.70;99.90
3644;DHT22;1838;50.742;7.158;2022-11-20T18:05:00;7.60;99.90
3644;DHT22;1838;50.742;7.158;2022-11-20T18:07:26;7.60;99.90
3644;DHT22;1838;50.742;7.158;2022-11-20T18:09:52;7.60;99.90
3644;DHT22;1838;50.742;7.158;2022-11-20T18:12:17;7.60;99.90